Time;durP1;ratioP1;P1;durP2;ratioP2;P2;SDS_P1;SDS_P2;PMS_P1;PMS_P2;Temp;Humidity;BMP_temperature;BMP_pressure;BME280_temperature;BME280_humidity;BME280_pressure;Samples;Min_cycle;Max_cycle;Signal;HPM_P1;HPM_P2
2024/03/24 00:00:04;;;;;;;2.15;1.02;;;;;;;17.30;55.45;100226.13;10365062;28;20030;-60
2024/03/24 00:05:05;;;;;;;3.33;0.70;;;;;;;17.30;55.67;100234.97;10365626;28;20504;-59
2024/03/24 00:10:07;;;;;;;3.05;0.82;;;;;;;17.30;54.50;100224.25;10364816;28;20018;-58
2024/03/24 00:15:07;;;;;;;5.82;0.80;;;;;;;17.29;55.13;100222.66;10364639;28;20131;-60
2024/03/24 00:20:08;;;;;;;1.85;0.88;;;;;;;17.27;54.31;100229.38;10364619;28;20113;-60
2024/03/24 00:25:09;;;;;;;3.13;0.75;;;;;;;17.28;55.23;100223.72;10365542;28;20559;-60
2024/03/24 00:30:10;;;;;;;2.55;0.80;;;;;;;17.25;54.95;100208.25;10364402;28;20022;-60
2024/03/24 00:35:10;;;;;;;1.73;0.55;;;;;;;17.22;55.22;100204.28;10364564;28;20466;-60
2024/03/24 00:40:11;;;;;;;2.03;0.82;;;;;;;17.24;54.62;100195.94;10364127;28;20104;-60
2024/03/24 00:45:11;;;;;;;1.60;0.70;;;;;;;17.24;54.93;100198.63;10365021;28;20413;-60
2024/03/24 00:50:14;;;;;;;1.85;0.80;;;;;;;17.24;55.26;100187.91;10363921;28;20413;-59
2024/03/24 00:55:14;;;;;;;3.20;1.20;;;;;;;17.22;55.45;100185.53;10362844;28;20040;-59
2024/03/24 01:00:14;;;;;;;1.53;0.80;;;;;;;17.26;55.15;100169.66;10362407;28;20030;-59
2024/03/24 01:05:15;;;;;;;1.40;0.75;;;;;;;17.23;54.57;100157.66;10364222;28;20324;-60
2024/03/24 01:10:15;;;;;;;1.35;0.60;;;;;;;17.28;54.74;100145.22;10363610;28;20433;-61
2024/03/24 01:15:16;;;;;;;1.33;0.68;;;;;;;17.27;54.93;100144.44;10363951;28;20152;-59
2024/03/24 01:20:17;;;;;;;2.22;1.35;;;;;;;17.27;53.77;100130.25;10363467;28;20480;-60
2024/03/24 01:25:17;;;;;;;2.92;1.17;;;;;;;17.28;53.77;100121.09;10363615;28;20034;-58
2024/03/24 01:30:17;;;;;;;3.05;0.82;;;;;;;17.25;54.61;100117.94;10369446;28;20033;-59
2024/03/24 01:35:18;;;;;;;2.67;0.97;;;;;;;17.29;54.35;100109.31;10371257;28;20057;-59
2024/03/24 01:40:18;;;;;;;2.33;1.25;;;;;;;17.25;53.77;100090.34;10370722;28;20354;-59
2024/03/24 01:45:19;;;;;;;1.47;0.80;;;;;;;17.27;55.13;100093.53;10370801;28;20032;-59
2024/03/24 01:50:20;;;;;;;1.58;0.82;;;;;;;17.24;53.64;100084.22;10370106;28;20276;-60
2024/03/24 01:55:20;;;;;;;1.17;0.68;;;;;;;17.27;54.84;100076.66;10370093;28;20080;-60
2024/03/24 02:00:21;;;;;;;1.88;0.90;;;;;;;17.26;54.06;100059.78;10368304;28;20034;-60
2024/03/24 02:05:25;;;;;;;2.72;0.95;;;;;;;17.27;53.88;100052.53;10369681;28;20030;-59
2024/03/24 02:10:25;;;;;;;2.38;0.65;;;;;;;17.26;54.96;100041.03;10369198;28;20028;-60
2024/03/24 02:15:26;;;;;;;3.13;1.08;;;;;;;17.26;54.58;100035.69;10369068;28;20046;-60
2024/03/24 02:20:26;;;;;;;1.92;0.65;;;;;;;17.25;54.84;100032.22;10367292;28;20485;-60
2024/03/24 02:25:27;;;;;;;3.28;0.88;;;;;;;17.27;54.98;100045.28;10369309;28;20532;-60
2024/03/24 02:30:27;;;;;;;1.90;1.00;;;;;;;17.26;54.41;100051.75;10368306;28;20037;-60
2024/03/24 02:35:28;;;;;;;3.47;0.80;;;;;;;17.25;53.57;100050.16;10368445;28;20296;-60
2024/03/24 02:40:28;;;;;;;2.10;0.70;;;;;;;17.23;54.71;100030.94;10367669;28;20768;-59
2024/03/24 02:45:28;;;;;;;5.77;0.90;;;;;;;17.25;53.36;100034.88;10368349;28;20034;-60
2024/03/24 02:50:29;;;;;;;1.77;0.70;;;;;;;17.25;53.30;100036.78;10367923;28;20749;-58
2024/03/24 02:55:29;;;;;;;2.23;0.87;;;;;;;17.22;53.69;100024.78;10367805;28;20338;-59
2024/03/24 03:00:30;;;;;;;2.00;0.77;;;;;;;17.25;53.60;100009.97;10367274;28;20358;-60
2024/03/24 03:05:30;;;;;;;2.90;0.80;;;;;;;17.27;53.52;99996.28;10367471;28;20106;-61
2024/03/24 03:10:31;;;;;;;2.03;0.77;;;;;;;17.33;52.79;100006.59;10367087;28;20310;-59
2024/03/24 03:15:31;;;;;;;0.98;0.77;;;;;;;17.32;54.02;99985.47;10367145;28;20284;-60
2024/03/24 03:20:32;;;;;;;2.45;0.75;;;;;;;17.32;53.45;99977.41;10366518;28;20026;-60
2024/03/24 03:25:33;;;;;;;1.58;0.80;;;;;;;17.34;53.30;99984.06;10366926;28;20105;-59
2024/03/24 03:30:34;;;;;;;1.35;0.80;;;;;;;17.32;53.14;99972.84;10353125;28;20021;-60
2024/03/24 03:35:34;;;;;;;1.45;0.73;;;;;;;17.34;54.01;99977.91;10366918;28;20405;-60
2024/03/24 03:40:34;;;;;;;1.33;0.50;;;;;;;17.33;53.46;99979.78;10365971;28;20037;-61
2024/03/24 03:45:35;;;;;;;1.97;1.00;;;;;;;17.35;52.71;99976.81;10366239;28;20602;-58
2024/03/24 03:50:37;;;;;;;1.17;0.73;;;;;;;17.30;53.00;99983.09;10365018;28;20261;-61
2024/03/24 03:55:37;;;;;;;1.30;0.68;;;;;;;17.29;53.58;100016.34;10365917;28;20084;-61
2024/03/24 04:00:38;;;;;;;2.22;0.70;;;;;;;17.26;53.91;100016.94;10365203;28;20160;-59
2024/03/24 04:05:39;;;;;;;2.53;0.70;;;;;;;17.24;54.31;100011.09;10365262;28;20030;-60
2024/03/24 04:10:39;;;;;;;1.02;0.80;;;;;;;17.27;54.20;100013.16;10364027;28;20308;-60
2024/03/24 04:15:40;;;;;;;2.70;0.73;;;;;;;17.30;52.98;100028.63;10380056;28;20136;-60
2024/03/24 04:20:41;;;;;;;1.85;0.68;;;;;;;17.31;53.75;99999.97;10364995;28;20324;-60
2024/03/24 04:25:41;;;;;;;0.82;0.50;;;;;;;17.34;53.01;99994.78;10364443;28;20030;-60
2024/03/24 04:30:42;;;;;;;1.23;0.70;;;;;;;17.37;53.79;99988.78;10365163;28;20022;-59
2024/03/24 04:35:42;;;;;;;2.33;0.60;;;;;;;17.36;52.36;99984.53;10363666;28;20397;-60
2024/03/24 04:40:46;;;;;;;1.60;0.70;;;;;;;17.40;53.25;99992.75;10364472;28;20101;-60
2024/03/24 04:45:46;;;;;;;1.65;0.63;;;;;;;17.38;53.66;100001.09;10364077;28;20654;-60
2024/03/24 04:50:47;;;;;;;2.33;0.50;;;;;;;17.41;52.71;99994.34;10364754;28;20026;-60
2024/03/24 04:55:47;;;;;;;1.05;0.50;;;;;;;17.38;52.87;100001.09;10364190;28;20080;-61
2024/03/24 05:00:47;;;;;;;1.17;0.50;;;;;;;17.37;52.39;99999.50;10364080;28;20072;-61
2024/03/24 05:05:49;;;;;;;1.03;0.63;;;;;;;17.36;52.50;100003.28;10371375;28;20631;-61
2024/03/24 05:10:50;;;;;;;1.02;0.40;;;;;;;17.36;52.97;100008.66;10371005;28;20644;-61
2024/03/24 05:15:51;;;;;;;0.82;0.40;;;;;;;17.39;52.96;100008.03;10369871;28;20054;-60
2024/03/24 05:20:51;;;;;;;1.02;0.75;;;;;;;17.37;52.83;100002.19;10371343;28;20038;-59
2024/03/24 05:25:55;;;;;;;0.90;0.40;;;;;;;17.35;52.58;100007.06;10365848;28;20053;-61
2024/03/24 05:30:56;;;;;;;0.95;0.50;;;;;;;17.37;51.77;100010.22;10371613;28;20287;-61
2024/03/24 05:36:06;;;;;;;1.05;0.45;;;;;;;17.32;52.49;100005.00;10369972;28;20401;-61
2024/03/24 05:41:07;;;;;;;0.85;0.60;;;;;;;17.39;52.39;100024.13;10371856;28;20071;-61
2024/03/24 05:46:07;;;;;;;0.88;0.40;;;;;;;17.36;51.75;100019.38;10370379;28;20025;-61
2024/03/24 05:51:07;;;;;;;1.55;0.60;;;;;;;17.36;52.28;100021.25;10372966;28;20523;-61
2024/03/24 05:56:08;;;;;;;0.90;0.43;;;;;;;17.33;52.03;100019.19;10371321;28;20080;-61
2024/03/24 06:01:08;;;;;;;0.88;0.40;;;;;;;17.31;53.17;100038.25;10373601;28;20140;-61
2024/03/24 06:06:09;;;;;;;0.63;0.30;;;;;;;17.35;52.88;100057.19;10371850;28;20080;-61
2024/03/24 06:11:09;;;;;;;2.23;0.50;;;;;;;17.34;52.68;100077.03;10371929;28;20109;-61
2024/03/24 06:16:10;;;;;;;1.40;0.25;;;;;;;17.34;52.60;100066.34;10370187;28;20767;-60
2024/03/24 06:21:11;;;;;;;4.47;1.38;;;;;;;17.28;52.34;100043.41;10372075;28;20026;-60
2024/03/24 06:26:11;;;;;;;18.63;2.00;;;;;;;17.29;52.91;100053.06;10371359;28;20635;-60
2024/03/24 06:31:11;;;;;;;18.13;2.47;;;;;;;17.25;53.97;100048.28;10370712;28;20269;-59
2024/03/24 06:36:12;;;;;;;13.67;1.83;;;;;;;17.32;54.75;100053.25;10372112;28;20295;-59
2024/03/24 06:41:12;;;;;;;21.00;2.30;;;;;;;17.28;55.60;100046.09;10371330;28;20289;-57
2024/03/24 06:46:12;;;;;;;24.27;3.30;;;;;;;17.34;54.55;100045.69;10369987;28;20277;-60
2024/03/24 06:51:13;;;;;;;9.90;2.40;;;;;;;17.52;55.07;100043.91;10371320;28;20021;-57
2024/03/24 06:56:13;;;;;;;23.90;2.50;;;;;;;17.40;53.85;100047.13;10371000;28;20281;-59
2024/03/24 07:01:13;;;;;;;18.43;2.37;;;;;;;17.31;55.56;100043.63;10371057;28;20292;-59
2024/03/24 07:06:14;;;;;;;13.43;2.37;;;;;;;17.24;56.28;100052.06;10369305;28;20277;-59
2024/03/24 07:11:15;;;;;;;15.77;3.40;;;;;;;17.18;54.94;100061.31;10370555;28;20295;-59
2024/03/24 07:16:15;;;;;;;9.77;1.77;;;;;;;17.32;55.11;100050.56;10369797;28;20041;-58
2024/03/24 07:21:15;;;;;;;13.53;2.43;;;;;;;17.35;56.15;100049.94;10370560;28;20473;-57
2024/03/24 07:26:15;;;;;;;16.20;2.60;;;;;;;17.32;54.91;100057.81;10368652;28;20284;-61
2024/03/24 07:31:18;;;;;;;24.83;3.63;;;;;;;17.31;56.79;100083.81;10368291;28;20273;-59
2024/03/24 07:36:19;;;;;;;19.80;3.67;;;;;;;17.24;56.09;100083.41;10367793;28;20300;-60
2024/03/24 07:41:20;;;;;;;23.90;4.57;;;;;;;17.20;56.53;100074.41;10369413;28;20088;-60
2024/03/24 07:46:20;;;;;;;20.37;3.20;;;;;;;17.20;56.24;100077.09;10369321;28;20280;-61
2024/03/24 07:51:21;;;;;;;13.43;3.23;;;;;;;17.25;57.49;100068.94;10369251;28;20491;-59
2024/03/24 07:56:21;;;;;;;14.93;3.90;;;;;;;17.23;56.77;100084.50;10350844;28;20293;-58
2024/03/24 08:01:21;;;;;;;20.17;3.60;;;;;;;17.20;56.36;100077.88;10369242;28;20026;-59
2024/03/24 08:06:22;;;;;;;26.65;3.97;;;;;;;17.21;58.10;100084.03;10368580;28;20273;-60
2024/03/24 08:11:22;;;;;;;15.20;3.80;;;;;;;17.21;56.56;100076.78;10367186;28;20050;-59
2024/03/24 08:16:22;;;;;;;12.23;3.77;;;;;;;17.27;58.05;100077.44;10366921;28;20289;-58
2024/03/24 08:21:23;;;;;;;16.37;4.40;;;;;;;17.17;57.71;100086.53;10367855;28;20018;-58
2024/03/24 08:26:23;;;;;;;23.10;4.22;;;;;;;17.17;57.37;100088.41;10366762;28;20280;-59
2024/03/24 08:31:24;;;;;;;14.73;3.40;;;;;;;17.01;57.21;100108.56;10367064;28;20017;-59
2024/03/24 08:36:24;;;;;;;27.38;3.53;;;;;;;16.99;56.76;100092.78;10367964;28;20667;-60
2024/03/24 08:41:25;;;;;;;22.80;3.80;;;;;;;17.00;56.83;100085.56;10375658;28;20053;-59
2024/03/24 08:46:25;;;;;;;15.52;3.45;;;;;;;17.04;57.49;100087.31;10374930;28;20289;-59
2024/03/24 08:51:25;;;;;;;16.00;3.90;;;;;;;17.13;57.12;100082.84;10374893;28;20056;-61
2024/03/24 08:56:26;;;;;;;22.50;4.77;;;;;;;17.17;58.30;100085.72;10374133;28;20273;-60
2024/03/24 09:01:26;;;;;;;18.73;3.93;;;;;;;17.06;58.07;100097.75;10371101;28;20798;-60
2024/03/24 09:06:26;;;;;;;25.75;5.25;;;;;;;16.93;59.59;100092.13;10367411;28;20288;-59
2024/03/24 09:11:27;;;;;;;34.08;5.72;;;;;;;16.86;58.90;100090.91;10373267;28;20053;-62
2024/03/24 09:16:27;;;;;;;20.15;4.82;;;;;;;16.93;59.28;100088.66;10374661;28;20123;-61
2024/03/24 09:21:27;;;;;;;26.63;4.77;;;;;;;17.02;57.76;100088.72;10347698;28;20054;-58
2024/03/24 09:26:28;;;;;;;22.25;5.50;;;;;;;16.92;58.83;100095.88;10361639;28;20764;-60
2024/03/24 09:31:28;;;;;;;20.48;4.55;;;;;;;16.94;57.63;100111.66;10373309;28;20026;-58
2024/03/24 09:36:28;;;;;;;11.65;3.85;;;;;;;16.94;58.90;100120.47;10372996;28;20025;-59
2024/03/24 09:41:29;;;;;;;26.37;4.63;;;;;;;16.92;59.02;100132.56;10374159;28;20026;-61
2024/03/24 09:46:29;;;;;;;18.27;3.53;;;;;;;17.12;57.72;100142.06;10373356;28;20620;-62
2024/03/24 09:51:32;;;;;;;21.80;4.93;;;;;;;17.01;57.26;100146.06;10371234;28;20279;-62
2024/03/24 09:56:33;;;;;;;27.58;4.03;;;;;;;17.06;58.80;100148.66;10372032;28;20026;-61
2024/03/24 10:01:38;;;;;;;20.27;3.47;;;;;;;17.06;59.04;100146.75;10371911;28;20025;-60
2024/03/24 10:06:39;;;;;;;16.20;3.90;;;;;;;17.10;58.27;100137.03;10372441;28;20366;-60
2024/03/24 10:11:39;;;;;;;15.40;3.47;;;;;;;17.08;58.69;100136.53;10372370;28;20042;-61
2024/03/24 10:16:39;;;;;;;16.13;4.27;;;;;;;17.06;59.13;100135.25;10371938;28;20273;-62
2024/03/24 10:21:40;;;;;;;18.77;3.28;;;;;;;16.94;57.93;100131.19;10371099;28;20292;-62
2024/03/24 10:26:40;;;;;;;14.15;3.10;;;;;;;16.89;57.69;100131.28;10372376;28;20025;-63
2024/03/24 10:31:40;;;;;;;13.10;3.10;;;;;;;16.85;58.98;100134.84;10365191;28;20030;-63
2024/03/24 10:36:43;;;;;;;12.13;4.47;;;;;;;16.78;57.56;100127.22;10370482;28;20029;-63
2024/03/24 10:41:44;;;;;;;20.50;2.85;;;;;;;16.80;58.26;100125.03;10368222;28;20300;-62
2024/03/24 10:46:45;;;;;;;17.13;3.65;;;;;;;16.93;57.38;100120.78;10359916;28;20541;-60
2024/03/24 10:51:48;;;;;;;30.02;5.15;;;;;;;16.93;58.02;100128.81;10369515;28;20033;-59
2024/03/24 10:56:48;;;;;;;21.17;2.70;;;;;;;16.95;58.92;100121.28;10380970;28;20705;-61
2024/03/24 11:01:49;;;;;;;21.95;4.28;;;;;;;16.82;58.51;100122.06;10370814;28;20044;-59
2024/03/24 11:06:50;;;;;;;21.55;4.82;;;;;;;16.74;59.90;100117.41;10370044;28;20109;-61
2024/03/24 11:11:50;;;;;;;27.27;3.80;;;;;;;16.70;59.57;100117.22;10365707;28;20385;-60
2024/03/24 11:16:54;;;;;;;28.27;3.33;;;;;;;16.72;59.51;100122.25;10366394;28;20034;-60
2024/03/24 11:21:57;;;;;;;13.45;3.92;;;;;;;16.80;60.70;100122.34;10380344;28;20528;-60
2024/03/24 11:26:58;;;;;;;18.38;3.60;;;;;;;16.89;59.81;100120.56;10381999;28;20036;-60
2024/03/24 11:31:58;;;;;;;10.50;3.58;;;;;;;16.86;59.23;100113.13;10385574;28;20416;-60
2024/03/24 11:36:59;;;;;;;10.63;3.10;;;;;;;16.81;59.47;100128.50;10353416;28;20021;-60
2024/03/24 11:42:06;;;;;;;11.45;2.55;;;;;;;16.77;59.39;100130.19;10365143;28;20096;-59
2024/03/24 11:47:06;;;;;;;22.17;4.95;;;;;;;16.73;60.54;100126.53;10366945;28;20041;-61
2024/03/24 11:52:07;;;;;;;18.13;2.83;;;;;;;16.70;59.42;100137.84;10369198;28;20048;-60
2024/03/24 11:57:07;;;;;;;21.23;3.08;;;;;;;16.75;60.65;100148.44;10385410;28;20291;-60
2024/03/24 12:02:07;;;;;;;25.23;4.63;;;;;;;16.86;59.14;100150.63;10386466;28;20490;-60
2024/03/24 12:07:08;;;;;;;13.73;2.87;;;;;;;16.95;60.71;100148.84;10372091;28;20040;-57
2024/03/24 12:12:08;;;;;;;15.07;3.47;;;;;;;16.94;61.05;100135.75;10366350;28;20292;-58
2024/03/24 12:17:09;;;;;;;13.88;3.00;;;;;;;16.96;60.84;100130.88;10366786;28;20033;-59
2024/03/24 12:22:09;;;;;;;18.55;3.50;;;;;;;16.84;59.54;100131.38;10384906;28;20032;-57
2024/03/24 12:27:09;;;;;;;13.17;2.97;;;;;;;16.90;60.59;100130.19;10380839;28;20048;-58
2024/03/24 12:32:12;;;;;;;24.70;4.77;;;;;;;17.01;59.55;100129.97;10392561;28;20747;-57
2024/03/24 12:37:12;;;;;;;21.20;4.22;;;;;;;16.92;59.93;100119.97;10373438;28;20656;-57
2024/03/24 12:42:13;;;;;;;31.10;4.18;;;;;;;16.91;60.52;100139.00;10365286;28;20038;-57
2024/03/24 12:47:17;;;;;;;20.55;3.13;;;;;;;16.85;60.17;100134.84;10366740;28;20539;-58
2024/03/24 12:52:17;;;;;;;16.08;3.20;;;;;;;16.84;59.37;100135.94;10365655;28;20034;-57
2024/03/24 12:57:17;;;;;;;16.47;3.67;;;;;;;16.76;59.91;100129.41;10366197;28;20466;-55
2024/03/24 13:02:18;;;;;;;20.83;4.23;;;;;;;16.69;60.22;100144.25;10365104;28;20351;-57
2024/03/24 13:07:19;;;;;;;12.20;3.08;;;;;;;16.62;58.95;100153.44;10365034;28;20853;-57
2024/03/24 13:12:20;;;;;;;11.27;3.53;;;;;;;16.68;59.17;100146.13;10365485;28;20124;-57
2024/03/24 13:17:28;;;;;;;11.48;4.00;;;;;;;16.64;59.71;100150.47;10365720;28;20038;-56
2024/03/24 13:22:28;;;;;;;10.20;2.33;;;;;;;16.60;58.74;100146.81;10363941;28;20048;-57
2024/03/24 13:27:56;;;;;;;9.57;2.70;;;;;;;16.56;58.76;100148.47;10372063;28;20041;-57
2024/03/24 13:32:57;;;;;;;10.73;3.30;;;;;;;16.52;59.05;100161.66;10371907;28;20383;-55
2024/03/24 13:38:21;;;;;;;8.07;2.47;;;;;;;16.51;58.91;100162.75;10372394;28;20041;-57
2024/03/24 13:44:02;;;;;;;15.90;3.28;;;;;;;16.52;58.04;100169.69;10372904;28;20288;-55
2024/03/24 13:49:02;;;;;;;10.38;2.53;;;;;;;16.56;58.58;100165.31;10371779;28;20026;-57
2024/03/24 13:54:04;;;;;;;8.03;2.47;;;;;;;16.62;58.85;100190.13;10371954;28;20026;-57
2024/03/24 13:59:04;;;;;;;5.60;1.80;;;;;;;16.58;58.35;100192.59;10371064;28;20292;-55
2024/03/24 14:04:05;;;;;;;6.93;2.43;;;;;;;16.62;57.82;100206.19;10371582;28;20493;-54
2024/03/24 14:09:09;;;;;;;6.35;1.83;;;;;;;16.67;57.35;100195.38;10369827;28;20277;-56
2024/03/24 14:14:36;;;;;;;9.48;4.15;;;;;;;16.69;58.45;100200.47;10386624;28;20054;-56
2024/03/24 14:19:58;;;;;;;6.35;2.00;;;;;;;16.74;57.00;100195.84;10370519;28;20161;-56
2024/03/24 14:25:06;;;;;;;7.38;1.63;;;;;;;16.75;56.81;100192.06;10367593;28;20500;-56
2024/03/24 14:30:07;;;;;;;3.40;1.55;;;;;;;16.74;58.28;100197.72;10371107;28;20038;-56
2024/03/24 14:35:08;;;;;;;7.80;2.28;;;;;;;16.75;57.18;100212.69;10370897;28;20030;-56
2024/03/24 14:40:42;;;;;;;4.57;1.58;;;;;;;16.67;56.94;100225.66;10368679;28;20025;-56
2024/03/24 14:46:01;;;;;;;5.88;1.65;;;;;;;16.71;57.87;100217.84;10368714;28;20026;-56
2024/03/24 14:51:01;;;;;;;5.78;1.33;;;;;;;16.74;57.22;100211.09;10368009;28;20029;-56
2024/03/24 14:56:01;;;;;;;5.57;1.52;;;;;;;16.76;57.43;100219.63;10369007;28;20531;-56
2024/03/24 15:01:02;;;;;;;4.82;2.10;;;;;;;16.75;57.05;100205.44;10369532;28;20381;-57
2024/03/24 15:06:02;;;;;;;3.95;1.65;;;;;;;16.74;56.92;100214.56;10369178;28;20412;-56
2024/03/24 15:11:03;;;;;;;5.82;1.55;;;;;;;16.75;57.17;100223.41;10366279;28;20049;-57
2024/03/24 15:16:03;;;;;;;4.18;1.48;;;;;;;16.75;58.13;100210.81;10369116;28;20040;-57
2024/03/24 15:21:04;;;;;;;4.13;2.00;;;;;;;16.75;56.38;100224.19;10368148;28;20108;-56
2024/03/24 15:26:04;;;;;;;4.18;1.50;;;;;;;16.73;56.95;100228.25;10369222;28;20101;-56
2024/03/24 15:31:04;;;;;;;3.75;1.67;;;;;;;16.69;56.49;100217.31;10368394;28;20057;-57
2024/03/24 15:36:06;;;;;;;5.97;1.97;;;;;;;16.72;57.89;100218.63;10368354;28;20033;-56
2024/03/24 15:41:06;;;;;;;6.13;1.90;;;;;;;16.71;57.74;100219.72;10366977;28;20292;-56
2024/03/24 15:46:07;;;;;;;8.85;2.08;;;;;;;16.72;55.68;100227.47;10367401;28;20021;-55
2024/03/24 15:51:07;;;;;;;4.63;1.30;;;;;;;16.72;56.40;100229.34;10366925;28;20500;-57
2024/03/24 15:56:25;;;;;;;16.80;3.00;;;;;;;16.73;57.78;100233.59;10365180;28;20022;-55
2024/03/24 16:01:36;;;;;;;18.08;2.65;;;;;;;16.85;57.57;100234.72;10363953;28;20328;-57
2024/03/24 16:06:37;;;;;;;19.52;3.50;;;;;;;16.88;57.12;100239.47;10366232;28;20034;-58
2024/03/24 16:11:40;;;;;;;21.85;4.00;;;;;;;16.88;57.00;100242.16;10366326;28;20060;-58
2024/03/24 16:16:41;;;;;;;18.40;3.58;;;;;;;16.96;56.91;100240.69;10364318;28;20029;-59
2024/03/24 16:21:55;;;;;;;21.92;5.55;;;;;;;17.33;61.78;100260.34;10363954;28;20419;-59
2024/03/24 16:26:55;;;;;;;19.48;5.45;;;;;;;17.34;60.56;100252.03;10362566;28;20060;-58
2024/03/24 16:31:56;;;;;;;29.07;8.47;;;;;;;17.41;63.44;100268.50;10364359;28;20160;-58
2024/03/24 16:36:56;;;;;;;27.23;10.90;;;;;;;17.67;66.94;100268.00;10366712;28;20386;-57
2024/03/24 16:41:56;;;;;;;109.30;84.50;;;;;;;17.68;65.46;100270.38;10365983;28;20292;-57
2024/03/24 16:46:57;;;;;;;56.35;40.85;;;;;;;17.70;64.35;100262.84;10363248;28;20752;-59
2024/03/24 16:51:57;;;;;;;44.07;30.77;;;;;;;17.70;65.42;100275.44;10366296;28;20459;-58
2024/03/24 16:56:57;;;;;;;50.93;30.70;;;;;;;17.65;64.95;100288.94;10365988;28;20276;-58
2024/03/24 17:01:59;;;;;;;59.87;29.37;;;;;;;17.57;64.36;100287.75;10374203;28;20764;-58
2024/03/24 17:06:59;;;;;;;47.40;26.15;;;;;;;17.51;64.47;100294.28;10373346;28;20633;-60
2024/03/24 17:12:00;;;;;;;42.27;25.77;;;;;;;17.52;63.48;100318.16;10373210;28;20076;-59
2024/03/24 17:17:02;;;;;;;41.17;24.50;;;;;;;17.44;64.73;100324.19;10371982;28;20510;-58
2024/03/24 17:22:03;;;;;;;50.60;23.17;;;;;;;17.42;66.41;100322.91;10371778;28;20045;-58
2024/03/24 17:27:04;;;;;;;31.95;19.55;;;;;;;17.34;65.33;100326.25;10367673;28;20037;-57
2024/03/24 17:32:04;;;;;;;34.45;17.60;;;;;;;17.28;64.16;100338.94;10365097;28;20022;-58
2024/03/24 17:37:05;;;;;;;45.92;21.05;;;;;;;17.08;64.43;100336.63;10373074;28;20029;-58
2024/03/24 17:42:05;;;;;;;36.33;19.17;;;;;;;16.98;63.91;100329.56;10369447;28;20018;-56
2024/03/24 17:47:06;;;;;;;26.98;17.20;;;;;;;17.09;63.51;100340.91;10372461;28;20272;-59
2024/03/24 17:52:07;;;;;;;28.50;16.40;;;;;;;17.15;64.32;100337.81;10371682;28;20018;-56
2024/03/24 17:57:07;;;;;;;27.35;14.60;;;;;;;17.09;64.12;100365.00;10369714;28;20473;-57
2024/03/24 18:02:09;;;;;;;27.00;15.33;;;;;;;17.02;63.68;100383.34;10364629;28;20022;-59
2024/03/24 18:12:28;;;;;;;19.23;12.13;;;;;;;16.93;61.98;100393.94;10400276;28;20081;-58
2024/03/24 18:17:28;;;;;;;21.60;11.17;;;;;;;16.91;61.56;100404.13;10397650;28;20108;-58
2024/03/24 18:22:29;;;;;;;25.33;10.27;;;;;;;16.87;62.66;100408.47;10374227;28;20366;-58
2024/03/24 18:27:31;;;;;;;20.73;11.05;;;;;;;16.88;62.08;100407.38;10389098;28;20049;-59
2024/03/24 18:32:32;;;;;;;23.77;10.80;;;;;;;16.91;62.19;100402.25;10372531;28;20433;-59
2024/03/24 18:37:32;;;;;;;21.70;11.48;;;;;;;16.96;62.23;100409.41;10362490;28;20022;-58
2024/03/24 18:42:32;;;;;;;25.42;11.13;;;;;;;16.96;61.32;100401.38;10367596;28;20026;-59
2024/03/24 18:47:36;;;;;;;27.50;9.20;;;;;;;16.98;60.75;100409.13;10383816;28;20035;-59
2024/03/24 18:52:42;;;;;;;18.77;10.13;;;;;;;17.00;61.70;100406.94;10394511;28;20271;-58
2024/03/24 18:57:42;;;;;;;13.85;9.70;;;;;;;17.06;60.95;100422.66;10391053;28;20026;-58
2024/03/24 19:02:43;;;;;;;15.75;9.88;;;;;;;17.10;60.40;100425.53;10382771;28;20025;-60
2024/03/24 19:07:43;;;;;;;16.88;10.13;;;;;;;17.14;60.05;100426.53;10377060;28;20033;-58
2024/03/24 19:12:46;;;;;;;18.38;8.60;;;;;;;17.16;60.05;100432.38;10370593;28;20073;-58
2024/03/24 19:17:46;;;;;;;17.02;8.45;;;;;;;17.14;60.74;100434.56;10366915;28;20058;-57
2024/03/24 19:22:47;;;;;;;11.57;8.98;;;;;;;17.13;59.91;100439.13;10365161;28;20444;-58
2024/03/24 19:27:47;;;;;;;14.70;8.73;;;;;;;17.09;59.81;100448.84;10367177;28;20401;-57
2024/03/24 19:32:48;;;;;;;18.55;8.63;;;;;;;17.05;60.52;100450.53;10364518;28;20269;-58
2024/03/24 19:37:49;;;;;;;10.98;6.93;;;;;;;17.04;60.67;100443.56;10366152;28;20030;-57
2024/03/24 19:42:49;;;;;;;14.95;6.70;;;;;;;17.06;61.10;100449.44;10364120;28;20536;-57
2024/03/24 19:47:50;;;;;;;12.37;7.43;;;;;;;17.13;60.29;100454.41;10366217;28;20119;-58
2024/03/24 19:52:51;;;;;;;11.23;6.95;;;;;;;17.15;59.40;100462.94;10365782;28;20261;-58
2024/03/24 19:57:54;;;;;;;11.52;6.40;;;;;;;17.13;59.14;100468.59;10359492;28;20064;-58
2024/03/24 20:02:55;;;;;;;13.10;6.88;;;;;;;17.16;59.95;100465.34;10359695;28;20026;-58
2024/03/24 20:07:55;;;;;;;12.60;6.88;;;;;;;17.18;60.49;100473.91;10364024;28;20026;-56
2024/03/24 20:12:55;;;;;;;12.97;6.20;;;;;;;17.15;59.99;100485.19;10362671;28;20037;-56
2024/03/24 20:17:56;;;;;;;13.70;6.75;;;;;;;17.19;58.64;100478.16;10363088;28;20326;-57
2024/03/24 20:22:57;;;;;;;14.77;5.70;;;;;;;17.09;59.05;100481.00;10362157;28;20462;-58
2024/03/24 20:27:57;;;;;;;12.13;5.50;;;;;;;17.11;58.83;100476.13;10372842;28;20295;-59
2024/03/24 20:32:57;;;;;;;12.63;5.07;;;;;;;17.12;59.69;100468.91;10356511;28;20022;-58
2024/03/24 20:38:03;;;;;;;8.98;4.95;;;;;;;17.09;58.75;100474.84;10375962;28;20371;-59
2024/03/24 20:43:03;;;;;;;11.25;4.72;;;;;;;17.14;58.82;100482.78;10354486;28;20341;-56
2024/03/24 20:48:04;;;;;;;8.60;5.03;;;;;;;17.11;59.15;100480.69;10366916;28;20030;-57
2024/03/24 20:53:04;;;;;;;8.45;4.50;;;;;;;17.12;58.84;100484.97;10351423;28;20122;-57
2024/03/24 20:58:06;;;;;;;7.93;4.28;;;;;;;17.09;59.24;100489.03;10345864;28;20035;-57
2024/03/24 21:03:11;;;;;;;7.82;4.15;;;;;;;17.06;59.39;100489.63;10373496;28;20104;-58
2024/03/24 21:08:12;;;;;;;10.13;4.43;;;;;;;17.05;58.62;100493.38;10356343;28;20030;-56
2024/03/24 21:13:12;;;;;;;8.43;4.18;;;;;;;17.06;59.36;100499.53;10358124;28;20038;-58
2024/03/24 21:18:13;;;;;;;8.15;4.20;;;;;;;17.06;57.80;100500.34;10375354;28;20561;-56
2024/03/24 21:23:13;;;;;;;11.15;4.53;;;;;;;17.11;58.67;100502.13;10363839;28;20473;-58
2024/03/24 21:28:13;;;;;;;9.20;3.33;;;;;;;17.11;59.20;100504.81;10363505;28;20085;-57
2024/03/24 21:33:14;;;;;;;8.90;3.37;;;;;;;17.10;58.02;100508.56;10362613;28;20308;-58
2024/03/24 21:43:33;;;;;;;6.33;3.20;;;;;;;17.13;58.11;100508.00;10363605;28;20286;-58
2024/03/24 21:48:33;;;;;;;6.97;3.30;;;;;;;17.11;58.64;100510.97;10370151;28;20025;-57
2024/03/24 21:53:34;;;;;;;8.90;3.58;;;;;;;17.12;58.31;100509.88;10369262;28;20116;-57
2024/03/24 21:58:34;;;;;;;5.70;2.73;;;;;;;17.12;57.81;100507.19;10370230;28;20029;-58
2024/03/24 22:03:35;;;;;;;5.07;2.83;;;;;;;17.14;57.78;100505.03;10370095;28;20597;-56
2024/03/24 22:08:35;;;;;;;8.25;3.22;;;;;;;17.13;56.57;100506.09;10369669;28;20285;-57
2024/03/24 22:13:35;;;;;;;5.53;2.50;;;;;;;17.12;57.80;100514.44;10369874;28;20133;-57
2024/03/24 22:18:36;;;;;;;7.22;3.25;;;;;;;17.15;57.95;100513.84;10369295;28;20287;-57
2024/03/24 22:23:36;;;;;;;6.25;3.78;;;;;;;17.12;57.83;100517.13;10369847;28;20385;-56
2024/03/24 22:28:36;;;;;;;4.43;2.53;;;;;;;17.13;57.23;100522.19;10368699;28;20105;-57
2024/03/24 22:33:37;;;;;;;5.90;2.57;;;;;;;17.14;56.68;100515.72;10364258;28;20026;-56
2024/03/24 22:38:37;;;;;;;5.20;2.53;;;;;;;17.14;57.33;100522.97;10366894;28;20347;-57
2024/03/24 22:43:38;;;;;;;5.18;2.40;;;;;;;17.13;56.43;100514.13;10342425;28;20466;-58
2024/03/24 22:48:38;;;;;;;5.50;2.40;;;;;;;17.14;57.32;100513.06;10342024;28;20398;-57
2024/03/24 22:53:44;;;;;;;5.83;2.67;;;;;;;17.15;56.83;100524.56;10368984;28;20022;-57
2024/03/24 22:58:44;;;;;;;5.93;2.38;;;;;;;17.12;56.96;100523.28;10367121;28;20348;-57
2024/03/24 23:03:45;;;;;;;5.90;2.33;;;;;;;17.13;57.05;100532.09;10367057;28;20026;-58